Time;durP1;ratioP1;P1;durP2;ratioP2;P2;SDS_P1;SDS_P2;PMS_P1;PMS_P2;Temp;Humidity;BMP_temperature;BMP_pressure;BME280_temperature;BME280_humidity;BME280_pressure;Samples;Min_cycle;Max_cycle;Signal;HPM_P1;HPM_P2
2022/11/01 00:01:36;;;;;;;23.30;16.97;;;;;;;13.22;100.00;98123.81;5162647;23;20633;-90
2022/11/01 00:03:39;;;;;;;20.20;17.17;;;;;;;13.20;100.00;98125.75;5137839;23;20606;-90
2022/11/01 00:05:42;;;;;;;32.83;18.20;;;;;;;13.22;100.00;98128.25;5189814;22;20589;-90
2022/11/01 00:07:45;;;;;;;23.87;17.00;;;;;;;13.20;100.00;98124.91;5188734;22;20604;-90
2022/11/01 00:09:49;;;;;;;18.83;16.80;;;;;;;13.18;100.00;98125.03;5163598;23;20562;-90
2022/11/01 00:11:52;;;;;;;23.07;17.13;;;;;;;13.18;100.00;98122.41;5138508;23;20959;-90
2022/11/01 00:13:55;;;;;;;24.33;16.90;;;;;;;13.15;100.00;98118.38;5138881;23;20670;-90
2022/11/01 00:15:58;;;;;;;19.77;15.27;;;;;;;13.15;100.00;98115.75;5137853;23;20575;-90
2022/11/01 00:18:02;;;;;;;29.07;15.63;;;;;;;13.08;100.00;98110.16;5190798;22;20613;-90
2022/11/01 00:20:07;;;;;;;21.73;15.07;;;;;;;13.08;100.00;98110.16;5163901;23;20573;-90
2022/11/01 00:22:10;;;;;;;23.23;15.60;;;;;;;13.07;100.00;98102.44;5162063;23;20633;-90
2022/11/01 00:24:13;;;;;;;26.03;15.40;;;;;;;13.05;99.74;98105.16;5163625;23;20583;-90
2022/11/01 00:26:18;;;;;;;25.63;16.97;;;;;;;13.05;99.93;98113.03;5138332;23;21065;-90
2022/11/01 00:28:21;;;;;;;22.23;15.77;;;;;;;13.03;100.00;98111.47;5138275;23;20580;-90
2022/11/01 00:30:24;;;;;;;18.83;15.40;;;;;;;13.03;100.00;98114.06;5163467;23;20667;-90
2022/11/01 00:32:27;;;;;;;23.43;15.30;;;;;;;13.02;100.00;98109.78;5190522;22;20583;-90
2022/11/01 00:34:32;;;;;;;23.70;15.70;;;;;;;13.00;100.00;98109.91;5137633;23;20594;-90
2022/11/01 00:36:35;;;;;;;21.17;15.57;;;;;;;12.99;100.00;98116.13;5189039;22;20577;-90
2022/11/01 00:38:39;;;;;;;18.90;14.97;;;;;;;12.99;100.00;98110.88;5138625;23;20664;-90
2022/11/01 00:40:42;;;;;;;24.13;16.53;;;;;;;13.01;100.00;98108.97;5138642;23;20582;-90
2022/11/01 00:42:45;;;;;;;22.43;16.47;;;;;;;13.01;100.00;98111.56;5163685;23;20557;-90
2022/11/01 00:44:48;;;;;;;18.67;15.30;;;;;;;13.00;100.00;98107.28;5162791;23;20586;-90
2022/11/01 00:46:51;;;;;;;16.63;14.83;;;;;;;12.99;100.00;98113.50;5162728;23;20616;-90
2022/11/01 00:48:54;;;;;;;36.03;16.43;;;;;;;12.95;99.61;98109.44;5189516;22;20576;-90
2022/11/01 00:50:59;;;;;;;27.73;15.80;;;;;;;12.94;100.00;98106.94;5188413;22;21027;-90
2022/11/01 00:53:02;;;;;;;17.87;14.60;;;;;;;12.91;99.07;98105.38;5137665;23;20580;-90
2022/11/01 00:55:05;;;;;;;15.57;14.00;;;;;;;12.87;99.07;98097.88;5189420;22;20556;-90
2022/11/01 00:57:09;;;;;;;16.33;14.33;;;;;;;12.85;100.00;98089.31;5163610;23;20599;-90
2022/11/01 00:59:12;;;;;;;16.10;14.37;;;;;;;12.81;99.71;98096.56;5190045;22;21147;-90
2022/11/01 01:01:15;;;;;;;15.73;14.07;;;;;;;12.82;99.36;98092.13;5162473;23;20578;-90
2022/11/01 01:03:18;;;;;;;17.93;14.20;;;;;;;12.80;98.39;98104.53;5163199;23;20988;-90
2022/11/01 01:05:21;;;;;;;17.10;14.67;;;;;;;12.75;98.08;98097.03;5162166;23;20910;-90
2022/11/01 01:07:26;;;;;;;15.07;13.47;;;;;;;12.75;97.62;98104.06;5137948;23;21401;-90
2022/11/01 01:09:29;;;;;;;19.17;15.23;;;;;;;12.75;99.05;98102.25;5138186;23;20640;-90
2022/11/01 01:11:32;;;;;;;16.30;14.60;;;;;;;12.75;99.88;98107.50;5139286;23;20596;-90
2022/11/01 01:13:35;;;;;;;20.13;15.40;;;;;;;12.77;100.00;98102.97;5138498;23;20624;-89
2022/11/01 01:15:38;;;;;;;22.03;15.20;;;;;;;12.76;100.00;98098.69;5163296;23;21179;-89
2022/11/01 01:17:41;;;;;;;20.97;16.43;;;;;;;12.75;99.85;98115.34;5191376;22;20575;-90
2022/11/01 01:19:44;;;;;;;20.20;15.17;;;;;;;12.75;100.00;98104.88;5164830;23;20636;-90
2022/11/01 01:21:47;;;;;;;16.97;14.80;;;;;;;12.75;100.00;98102.25;5192503;22;20905;-90
2022/11/01 01:23:53;;;;;;;18.53;15.13;;;;;;;12.75;100.00;98112.72;5139614;23;20580;-90
2022/11/01 01:25:56;;;;;;;18.43;15.43;;;;;;;12.75;100.00;98101.44;5191040;22;20572;-89
2022/11/01 01:27:59;;;;;;;19.57;15.57;;;;;;;12.75;100.00;98104.88;5139094;23;20567;-90
2022/11/01 01:30:05;;;;;;;18.13;15.07;;;;;;;12.74;100.00;98103.19;5164967;23;20563;-90
2022/11/01 01:32:08;;;;;;;22.20;14.93;;;;;;;12.73;100.00;98101.56;5164704;23;20591;-90
2022/11/01 01:34:12;;;;;;;20.83;15.73;;;;;;;12.71;99.62;98089.53;5163892;23;20599;-90
2022/11/01 01:36:15;;;;;;;15.90;14.03;;;;;;;12.68;100.00;98097.59;5139485;23;20578;-90
2022/11/01 01:38:18;;;;;;;17.60;14.90;;;;;;;12.66;100.00;98091.66;5190039;22;20584;-89
2022/11/01 01:40:22;;;;;;;16.73;14.90;;;;;;;12.68;100.00;98087.13;5164227;23;20585;-90
2022/11/01 01:42:27;;;;;;;16.40;14.70;;;;;;;12.67;100.00;98090.69;5192297;22;20567;-90
2022/11/01 01:45:09;;;;;;;16.03;14.30;;;;;;;12.66;100.00;98083.81;5165216;23;20634;-90
2022/11/01 01:47:18;;;;;;;25.37;15.93;;;;;;;12.67;100.00;98084.63;5139814;23;20582;-90
2022/11/01 01:49:22;;;;;;;20.10;14.20;;;;;;;12.64;100.00;98088.31;5164387;23;20678;-90
2022/11/01 01:51:27;;;;;;;18.20;14.40;;;;;;;12.64;100.00;98080.47;5163887;23;21151;-90
2022/11/01 01:53:32;;;;;;;35.23;16.07;;;;;;;12.63;100.00;98083.19;5139678;23;20923;-90
2022/11/01 01:55:41;;;;;;;27.23;16.23;;;;;;;12.62;100.00;98086.78;5139509;23;20616;-90
2022/11/01 01:57:45;;;;;;;47.10;17.90;;;;;;;12.63;100.00;98083.19;5165112;23;20623;-91
2022/11/01 01:59:48;;;;;;;36.57;16.00;;;;;;;12.62;100.00;98081.56;5139142;23;21299;-90
2022/11/01 02:01:51;;;;;;;21.30;14.90;;;;;;;12.61;100.00;98082.50;5140443;23;20590;-90
2022/11/01 02:03:55;;;;;;;18.73;14.67;;;;;;;12.59;100.00;98079.16;5139080;23;20591;-90
2022/11/01 02:06:00;;;;;;;19.43;13.67;;;;;;;12.58;100.00;98078.31;5163732;23;20678;-90
2022/11/01 02:08:05;;;;;;;26.80;14.63;;;;;;;12.58;100.00;98077.50;5164283;22;20641;-90
2022/11/01 02:10:09;;;;;;;26.93;15.67;;;;;;;12.59;100.00;98076.56;5164305;23;20589;-90
2022/11/01 02:12:14;;;;;;;21.40;14.90;;;;;;;12.59;99.84;98074.75;5164588;23;20624;-90
2022/11/01 02:14:17;;;;;;;30.80;15.40;;;;;;;12.59;99.91;98076.56;5164543;23;21138;-90
2022/11/01 02:16:47;;;;;;;27.93;15.60;;;;;;;12.59;99.91;98074.75;5191508;22;20576;-90
2022/11/01 02:18:56;;;;;;;16.87;14.37;;;;;;;12.58;100.00;98069.66;5164559;23;20596;-90
2022/11/01 02:21:16;;;;;;;32.27;16.87;;;;;;;12.59;100.00;98072.16;5164142;23;20564;-90
2022/11/01 02:23:51;;;;;;;28.10;17.13;;;;;;;12.60;100.00;98076.44;5190437;22;20694;-90
2022/11/01 02:26:05;;;;;;;20.83;14.40;;;;;;;12.62;100.00;98078.94;5121181;23;20594;-90
2022/11/01 02:28:21;;;;;;;23.23;15.10;;;;;;;12.61;100.00;98085.94;5139481;23;20576;-90
2022/11/01 02:30:25;;;;;;;19.67;15.20;;;;;;;12.60;99.96;98079.06;5191674;22;20568;-90
2022/11/01 02:32:41;;;;;;;26.33;15.53;;;;;;;12.61;99.61;98079.88;5139257;23;20577;-90
2022/11/01 02:34:46;;;;;;;27.20;17.33;;;;;;;12.59;100.00;98085.22;5164519;23;21127;-90
2022/11/01 02:36:56;;;;;;;18.80;15.63;;;;;;;12.60;100.00;98083.44;5190852;22;20585;-90
2022/11/01 02:39:00;;;;;;;23.23;16.30;;;;;;;12.63;100.00;98086.66;5164539;23;21119;-90
2022/11/01 02:41:08;;;;;;;18.90;15.90;;;;;;;12.65;100.00;98091.78;5139025;23;20621;-90
2022/11/01 02:43:16;;;;;;;18.70;15.07;;;;;;;12.65;100.00;98094.41;5164628;23;20573;-90
2022/11/01 02:45:27;;;;;;;19.97;15.83;;;;;;;12.65;100.00;98089.16;5138643;23;21136;-90
2022/11/01 02:47:32;;;;;;;19.73;16.07;;;;;;;12.68;100.00;98094.16;5139214;23;21282;-90
2022/11/01 02:49:38;;;;;;;18.30;16.40;;;;;;;12.68;100.00;98095.00;5164430;23;20631;-90
2022/11/01 02:51:42;;;;;;;19.13;15.80;;;;;;;12.68;100.00;98085.34;5190221;22;20552;-90
2022/11/01 02:53:46;;;;;;;18.47;15.63;;;;;;;12.70;100.00;98093.94;5139044;23;20625;-90
2022/11/01 02:55:51;;;;;;;22.07;16.03;;;;;;;12.72;100.00;98097.25;5163240;23;20604;-91
2022/11/01 02:57:56;;;;;;;19.40;15.10;;;;;;;12.72;100.00;98097.25;5163973;23;20573;-90
2022/11/01 03:00:03;;;;;;;18.50;15.80;;;;;;;12.73;100.00;98098.06;5163947;23;20604;-90
2022/11/01 03:02:09;;;;;;;19.17;15.17;;;;;;;12.74;100.00;98094.53;5164332;23;20667;-90
2022/11/01 03:04:14;;;;;;;19.43;15.20;;;;;;;12.76;100.00;98083.00;5190837;22;20572;-90
2022/11/01 03:06:22;;;;;;;20.83;14.90;;;;;;;12.75;100.00;98083.94;5189755;22;20585;-90
2022/11/01 03:08:29;;;;;;;23.80;16.20;;;;;;;12.77;100.00;98099.53;5164290;22;20623;-90
2022/11/01 03:10:38;;;;;;;16.10;14.40;;;;;;;12.78;100.00;98101.19;5190403;22;20573;-90
2022/11/01 03:12:49;;;;;;;18.00;14.87;;;;;;;12.84;100.00;98112.06;5163849;23;20576;-90
2022/11/01 03:14:55;;;;;;;16.77;14.83;;;;;;;12.83;100.00;98097.28;5162716;23;20582;-90
2022/11/01 03:17:00;;;;;;;16.43;13.50;;;;;;;12.86;100.00;98114.56;5163031;23;20627;-91
2022/11/01 03:19:07;;;;;;;19.17;14.50;;;;;;;12.88;100.00;98110.84;5139346;23;20578;-90
2022/11/01 03:21:16;;;;;;;18.00;14.63;;;;;;;12.90;100.00;98129.06;5163287;23;20564;-90
2022/11/01 03:23:23;;;;;;;20.80;15.70;;;;;;;12.94;100.00;98135.72;5164370;23;20563;-90
2022/11/01 03:25:38;;;;;;;16.17;14.40;;;;;;;12.95;100.00;98126.94;5138333;23;20582;-90
2022/11/01 03:27:42;;;;;;;18.83;14.53;;;;;;;12.97;100.00;98130.25;5164284;23;20573;-90
2022/11/01 03:29:49;;;;;;;22.50;14.97;;;;;;;12.99;100.00;98126.59;5138018;23;20598;-90
2022/11/01 03:31:58;;;;;;;17.97;14.20;;;;;;;12.99;100.00;98128.34;5163836;23;20562;-90
2022/11/01 03:34:03;;;;;;;16.23;14.10;;;;;;;13.01;100.00;98134.31;5163333;23;20661;-90
2022/11/01 03:36:09;;;;;;;17.33;14.83;;;;;;;12.98;100.00;98124.91;5163783;23;20572;-90
2022/11/01 03:38:20;;;;;;;16.47;13.87;;;;;;;12.96;100.00;98131.19;5164486;23;20587;-90
2022/11/01 03:40:25;;;;;;;17.17;14.30;;;;;;;12.94;100.00;98127.88;5190884;22;20605;-90
2022/11/01 03:42:28;;;;;;;17.37;14.80;;;;;;;12.93;100.00;98137.53;5164615;23;20574;-90
2022/11/01 03:44:33;;;;;;;16.17;14.57;;;;;;;12.95;100.00;98143.47;5163423;23;20570;-89
2022/11/01 03:46:37;;;;;;;17.60;15.20;;;;;;;12.98;100.00;98148.47;5135918;23;20673;-89
2022/11/01 03:48:40;;;;;;;16.43;14.73;;;;;;;12.99;100.00;98141.44;5138432;23;20583;-89
2022/11/01 03:50:47;;;;;;;17.00;13.90;;;;;;;12.99;100.00;98158.00;5163793;23;20945;-89
2022/11/01 03:52:50;;;;;;;15.50;13.73;;;;;;;12.97;100.00;98162.50;5138221;23;20591;-89
2022/11/01 03:54:55;;;;;;;18.97;13.60;;;;;;;12.99;100.00;98165.00;5138766;23;20977;-89
2022/11/01 03:56:58;;;;;;;16.43;13.90;;;;;;;12.99;100.00;98162.38;5163353;23;20633;-89
2022/11/01 03:59:01;;;;;;;15.70;14.00;;;;;;;12.98;100.00;98161.56;5163279;23;20903;-89
2022/11/01 04:01:04;;;;;;;16.47;14.77;;;;;;;13.01;100.00;98168.34;5161826;23;21122;-89
2022/11/01 04:03:08;;;;;;;18.67;14.57;;;;;;;13.02;100.00;98173.47;5138796;23;20650;-89
2022/11/01 04:05:12;;;;;;;15.47;13.47;;;;;;;13.02;100.00;98172.63;5139146;23;20590;-89
2022/11/01 04:07:15;;;;;;;16.30;14.60;;;;;;;13.02;100.00;98176.09;5137367;23;20646;-89
2022/11/01 04:09:18;;;;;;;15.60;14.00;;;;;;;13.05;100.00;98182.84;5138557;23;20609;-89
2022/11/01 04:11:22;;;;;;;20.43;14.73;;;;;;;13.01;100.00;98174.41;5163642;23;20648;-91
2022/11/01 04:13:25;;;;;;;17.60;15.07;;;;;;;13.01;100.00;98187.50;5137959;23;21214;-91
2022/11/01 04:22:31;;;;;;;22.27;14.20;;;;;;;13.04;100.00;98196.94;5163593;23;20583;-91
2022/11/01 04:24:34;;;;;;;22.03;15.20;;;;;;;13.05;100.00;98188.09;5163403;23;21006;-89
2022/11/01 04:26:39;;;;;;;18.53;14.00;;;;;;;13.04;100.00;98195.13;5138401;23;20602;-89
2022/11/01 04:28:43;;;;;;;17.37;14.13;;;;;;;13.04;100.00;98196.94;5138667;23;20604;-89
2022/11/01 04:30:46;;;;;;;17.70;14.67;;;;;;;13.05;100.00;98209.91;5137955;23;20585;-89
2022/11/01 04:32:49;;;;;;;17.10;13.90;;;;;;;13.06;100.00;98211.53;5138175;23;20583;-89
2022/11/01 04:34:52;;;;;;;21.87;14.53;;;;;;;13.07;100.00;98208.00;5163193;23;20660;-89
2022/11/01 04:36:56;;;;;;;17.87;13.87;;;;;;;13.10;100.00;98214.78;5189821;22;20808;-89
2022/11/01 04:38:59;;;;;;;18.40;15.23;;;;;;;13.07;100.00;98208.00;5138042;23;20578;-89
2022/11/01 04:41:02;;;;;;;18.00;14.47;;;;;;;13.11;100.00;98214.66;5163574;23;20609;-89
2022/11/01 04:43:06;;;;;;;17.30;14.47;;;;;;;13.09;100.00;98216.56;5137441;23;20669;-89
2022/11/01 04:45:10;;;;;;;17.37;14.60;;;;;;;13.10;100.00;98207.75;5138142;23;21149;-89
2022/11/01 04:47:13;;;;;;;19.03;14.00;;;;;;;13.11;100.00;98209.44;5164274;23;20584;-89
2022/11/01 04:49:16;;;;;;;22.13;14.40;;;;;;;13.11;100.00;98208.56;5163020;23;20577;-89
2022/11/01 04:51:19;;;;;;;21.10;14.43;;;;;;;13.09;100.00;98200.00;5138124;23;20642;-89
2022/11/01 04:53:22;;;;;;;20.67;15.37;;;;;;;13.13;100.00;98206.69;5137866;23;20614;-89
2022/11/01 04:55:25;;;;;;;18.60;14.53;;;;;;;13.10;100.00;98207.75;5138131;23;20625;-89
2022/11/01 04:57:28;;;;;;;18.50;15.33;;;;;;;13.11;100.00;98213.81;5162615;23;20993;-89
2022/11/01 04:59:33;;;;;;;22.03;15.03;;;;;;;13.11;100.00;98213.81;5162902;23;20571;-89
2022/11/01 05:01:36;;;;;;;17.73;14.10;;;;;;;13.14;100.00;98218.81;5190253;22;20712;-88
2022/11/01 05:03:39;;;;;;;16.57;13.70;;;;;;;13.14;100.00;98217.06;5163905;23;20632;-88
2022/11/01 05:05:42;;;;;;;16.67;13.90;;;;;;;13.18;100.00;98230.75;5190478;22;20630;-88
2022/11/01 05:07:45;;;;;;;16.33;14.67;;;;;;;13.19;100.00;98238.47;5162844;22;20648;-88
2022/11/01 05:09:48;;;;;;;16.50;14.40;;;;;;;13.17;100.00;98234.31;5137721;23;20608;-88
2022/11/01 05:11:51;;;;;;;18.50;14.30;;;;;;;13.19;100.00;98244.53;5187879;22;20564;-88
2022/11/01 05:13:55;;;;;;;16.50;14.83;;;;;;;13.21;100.00;98247.03;5190353;22;21029;-88
2022/11/01 05:16:02;;;;;;;16.00;14.30;;;;;;;13.25;100.00;98249.31;5189645;22;21150;-88
2022/11/01 05:18:21;;;;;;;15.70;14.00;;;;;;;13.23;100.00;98245.16;5162769;23;20665;-88
2022/11/01 05:20:25;;;;;;;14.90;12.30;;;;;;;13.24;100.00;98252.91;5137702;23;21207;-88
2022/11/01 05:22:28;;;;;;;17.47;12.27;;;;;;;13.25;100.00;98245.88;5138327;23;20580;-88
2022/11/01 05:24:31;;;;;;;17.97;13.10;;;;;;;13.28;100.00;98254.31;5162932;23;20626;-90
2022/11/01 05:26:34;;;;;;;18.50;12.00;;;;;;;13.30;100.00;98262.06;5162269;23;20635;-88
2022/11/01 05:28:37;;;;;;;16.07;12.87;;;;;;;13.37;100.00;98268.50;5163139;23;20614;-88
2022/11/01 05:30:41;;;;;;;17.40;13.07;;;;;;;13.39;100.00;98271.84;5162654;23;20585;-88
2022/11/01 05:32:45;;;;;;;15.90;13.30;;;;;;;13.35;100.00;98279.09;5138149;23;20649;-88
2022/11/01 05:34:48;;;;;;;16.40;14.53;;;;;;;13.33;100.00;98294.09;5162039;23;20581;-88
2022/11/01 05:36:51;;;;;;;17.10;14.43;;;;;;;13.29;100.00;98291.81;5163531;23;20599;-88
2022/11/01 05:38:56;;;;;;;16.90;12.80;;;;;;;13.19;100.00;98296.91;5138072;23;20593;-88
2022/11/01 05:41:01;;;;;;;13.60;11.50;;;;;;;13.20;100.00;98297.78;5162898;23;20613;-88
2022/11/01 05:43:04;;;;;;;15.30;11.13;;;;;;;13.23;100.00;98287.06;5163671;23;20580;-88
2022/11/01 05:45:08;;;;;;;12.17;10.10;;;;;;;13.33;100.00;98293.25;5189793;22;20553;-89
2022/11/01 05:47:12;;;;;;;15.90;9.93;;;;;;;13.39;100.00;98288.38;5162923;23;20572;-88
2022/11/01 05:49:21;;;;;;;13.03;10.07;;;;;;;13.46;100.00;98296.63;5137713;23;20610;-88
2022/11/01 05:51:24;;;;;;;12.53;10.30;;;;;;;13.53;100.00;98297.81;5162291;23;20940;-89
2022/11/01 05:53:27;;;;;;;14.20;10.63;;;;;;;13.59;100.00;98298.19;5138066;23;20661;-88
2022/11/01 05:55:30;;;;;;;13.03;10.60;;;;;;;13.60;100.00;98291.97;5162593;23;20585;-88
2022/11/01 05:57:33;;;;;;;13.40;12.10;;;;;;;13.62;100.00;98295.34;5165027;23;20650;-89
2022/11/01 05:59:36;;;;;;;14.23;10.53;;;;;;;13.63;100.00;98293.53;5164673;23;20573;-89
2022/11/01 06:01:39;;;;;;;12.47;10.60;;;;;;;13.66;100.00;98292.34;5136163;23;20611;-90
2022/11/01 06:03:42;;;;;;;14.77;10.10;;;;;;;13.70;100.00;98287.72;5163757;23;20574;-89
2022/11/01 06:05:48;;;;;;;14.70;9.63;;;;;;;13.76;100.00;98285.44;5138270;23;20583;-89
2022/11/01 06:07:51;;;;;;;12.47;8.80;;;;;;;13.83;100.00;98275.28;5164460;22;20604;-89
2022/11/01 06:09:54;;;;;;;10.70;9.20;;;;;;;13.87;100.00;98259.22;5164785;23;20896;-89
2022/11/01 06:11:57;;;;;;;11.90;9.23;;;;;;;13.90;100.00;98274.69;5138822;23;20590;-89
2022/11/01 06:14:00;;;;;;;11.50;9.87;;;;;;;13.94;100.00;98278.75;5139119;23;20628;-89
2022/11/01 06:16:05;;;;;;;16.70;10.03;;;;;;;13.94;100.00;98286.63;5164533;23;20617;-89
2022/11/01 06:18:08;;;;;;;11.73;8.77;;;;;;;13.98;100.00;98300.31;5191217;22;20581;-89
2022/11/01 06:20:12;;;;;;;11.47;9.70;;;;;;;13.98;100.00;98314.28;5164525;23;20577;-89
2022/11/01 06:22:16;;;;;;;14.07;10.47;;;;;;;14.01;100.00;98313.19;5138522;23;20702;-90
2022/11/01 06:24:19;;;;;;;13.70;11.20;;;;;;;14.03;100.00;98320.00;5139467;23;20580;-89
2022/11/01 06:26:22;;;;;;;12.97;11.50;;;;;;;14.02;100.00;98322.75;5138164;23;20650;-89
2022/11/01 06:28:25;;;;;;;14.17;11.30;;;;;;;14.02;100.00;98320.94;5162911;23;20561;-89
2022/11/01 06:30:28;;;;;;;15.17;11.90;;;;;;;14.01;100.00;98329.78;5164046;23;20580;-89
2022/11/01 06:32:31;;;;;;;16.00;12.00;;;;;;;13.98;100.00;98334.41;5139847;23;20584;-89
2022/11/01 06:34:35;;;;;;;15.80;10.73;;;;;;;13.95;100.00;98340.75;5163899;23;20637;-89
2022/11/01 06:36:44;;;;;;;11.97;10.43;;;;;;;13.95;100.00;98347.75;5138278;23;20609;-89
2022/11/01 06:38:49;;;;;;;14.37;10.70;;;;;;;13.95;100.00;98345.13;5139837;23;20613;-89
2022/11/01 06:40:52;;;;;;;18.43;12.00;;;;;;;13.95;100.00;98334.66;5138663;23;20924;-89
2022/11/01 06:42:59;;;;;;;15.40;11.67;;;;;;;13.96;100.00;98339.78;5163845;23;20592;-89
2022/11/01 06:45:03;;;;;;;17.67;12.50;;;;;;;13.93;100.00;98337.38;5163763;23;20583;-89
2022/11/01 06:47:06;;;;;;;18.43;12.30;;;;;;;13.96;100.00;98338.97;5163607;23;20570;-89
2022/11/01 06:49:09;;;;;;;17.93;13.37;;;;;;;13.96;100.00;98334.53;5164202;23;20584;-89
2022/11/01 06:51:20;;;;;;;17.40;12.93;;;;;;;13.97;100.00;98348.50;5163662;23;20675;-89
2022/11/01 06:53:23;;;;;;;17.00;13.37;;;;;;;13.97;100.00;98353.75;5191187;22;20619;-88
2022/11/01 06:55:28;;;;;;;14.67;12.33;;;;;;;13.93;100.00;98349.69;5163932;23;20574;-89
2022/11/01 06:57:31;;;;;;;13.47;11.80;;;;;;;13.95;100.00;98366.97;5190319;22;20675;-89
2022/11/01 06:59:34;;;;;;;16.70;11.97;;;;;;;13.96;100.00;98362.56;5160289;23;20577;-89
2022/11/01 07:01:38;;;;;;;12.93;11.63;;;;;;;13.94;100.00;98361.84;5187389;22;20589;-89
2022/11/01 07:03:41;;;;;;;14.53;12.80;;;;;;;13.95;100.00;98377.47;5191150;22;21092;-89
2022/11/01 07:05:44;;;;;;;15.57;11.97;;;;;;;13.97;100.00;98374.72;5138373;23;20714;-89
2022/11/01 07:07:47;;;;;;;19.43;13.03;;;;;;;14.01;100.00;98379.63;5136441;23;21149;-89
2022/11/01 07:09:50;;;;;;;15.50;12.83;;;;;;;14.04;100.00;98391.63;5163872;23;20584;-89
2022/11/01 07:11:57;;;;;;;14.30;11.90;;;;;;;14.06;100.00;98402.88;5163539;23;20576;-89
2022/11/01 07:14:00;;;;;;;11.57;9.70;;;;;;;14.08;100.00;98401.00;5139098;23;20579;-89
2022/11/01 07:16:04;;;;;;;13.37;9.70;;;;;;;14.12;100.00;98405.88;5164049;23;20594;-89
2022/11/01 07:18:08;;;;;;;11.40;8.93;;;;;;;14.15;100.00;98405.63;5162390;23;20578;-89
2022/11/01 07:20:11;;;;;;;10.10;7.30;;;;;;;14.22;100.00;98407.66;5164658;23;21095;-89
2022/11/01 07:22:14;;;;;;;13.27;8.30;;;;;;;14.31;100.00;98412.19;5189579;22;20628;-89
2022/11/01 07:24:17;;;;;;;11.40;10.00;;;;;;;14.37;100.00;98411.72;5163633;23;20618;-89
2022/11/01 07:26:20;;;;;;;8.93;8.00;;;;;;;14.44;100.00;98414.69;5138974;23;20618;-88
2022/11/01 07:28:25;;;;;;;11.27;9.30;;;;;;;14.47;100.00;98414.47;5164432;23;20614;-89
2022/11/01 07:30:28;;;;;;;13.00;10.40;;;;;;;14.49;100.00;98415.16;5138582;23;20583;-88
2022/11/01 07:32:31;;;;;;;16.50;9.87;;;;;;;14.52;100.00;98414.91;5139410;23;20662;-89
2022/11/01 07:34:41;;;;;;;13.70;9.70;;;;;;;14.53;100.00;98417.41;5138645;23;20589;-89
2022/11/01 07:36:44;;;;;;;13.80;10.37;;;;;;;14.58;100.00;98414.44;5138703;23;20674;-91
2022/11/01 07:38:47;;;;;;;15.20;11.37;;;;;;;14.63;100.00;98423.63;5164484;23;20685;-89
2022/11/01 07:40:52;;;;;;;16.10;8.47;;;;;;;14.69;100.00;98423.97;5190999;22;20596;-91
2022/11/01 07:42:57;;;;;;;9.80;7.30;;;;;;;14.75;100.00;98423.47;5139043;23;20612;-90
2022/11/01 07:45:01;;;;;;;14.80;12.57;;;;;;;14.82;100.00;98424.66;5136031;23;20622;-89
2022/11/01 07:47:04;;;;;;;17.10;12.00;;;;;;;14.83;100.00;98410.56;5163986;23;20619;-90
2022/11/01 07:49:08;;;;;;;16.30;12.97;;;;;;;14.87;100.00;98412.00;5138779;23;20582;-90
2022/11/01 07:51:11;;;;;;;13.20;11.83;;;;;;;14.91;100.00;98413.41;5139335;23;21173;-91
2022/11/01 07:53:16;;;;;;;12.23;8.97;;;;;;;14.95;100.00;98404.34;5138195;23;21114;-89
2022/11/01 07:55:19;;;;;;;16.50;10.50;;;;;;;15.02;100.00;98412.53;5138471;23;20587;-86
2022/11/01 07:57:23;;;;;;;12.13;8.70;;;;;;;15.07;100.00;98425.19;5138246;23;20583;-87
2022/11/01 07:59:26;;;;;;;10.93;7.27;;;;;;;15.10;100.00;98434.63;5188969;22;20660;-90
2022/11/01 08:01:30;;;;;;;9.13;7.73;;;;;;;15.13;100.00;98429.94;5163382;23;20626;-88
2022/11/01 08:03:33;;;;;;;11.30;8.30;;;;;;;15.16;100.00;98421.81;5138524;23;20698;-86
2022/11/01 08:05:37;;;;;;;6.60;5.20;;;;;;;15.20;100.00;98422.44;5163724;23;20582;-86
2022/11/01 08:07:40;;;;;;;8.93;7.87;;;;;;;15.27;100.00;98426.22;5189452;22;20586;-85
2022/11/01 08:09:43;;;;;;;9.30;8.07;;;;;;;15.37;100.00;98421.91;5137009;23;20667;-86
2022/11/01 08:11:46;;;;;;;14.90;11.43;;;;;;;15.46;100.00;98429.03;5161683;23;20675;-88
2022/11/01 08:13:49;;;;;;;15.77;11.93;;;;;;;15.50;100.00;98418.13;5138787;23;20626;-89
2022/11/01 08:15:53;;;;;;;16.77;11.50;;;;;;;15.58;100.00;98418.34;5163617;23;20567;-89
2022/11/01 08:17:58;;;;;;;7.37;5.83;;;;;;;15.68;100.00;98427.09;5138746;23;20639;-88
2022/11/01 08:20:01;;;;;;;8.30;4.37;;;;;;;15.76;100.00;98424.69;5163973;23;20614;-90
2022/11/01 08:22:04;;;;;;;10.10;4.73;;;;;;;15.86;100.00;98438.72;5138661;23;20672;-89
2022/11/01 08:24:08;;;;;;;10.33;7.50;;;;;;;15.97;100.00;98447.41;5163002;23;20607;-90
2022/11/01 08:26:11;;;;;;;10.23;8.50;;;;;;;16.06;100.00;98451.88;5137770;23;21124;-89
2022/11/01 08:28:16;;;;;;;10.53;7.50;;;;;;;16.13;100.00;98463.53;5162053;23;21233;-88
2022/11/01 08:30:19;;;;;;;12.93;8.07;;;;;;;16.20;100.00;98464.72;5162025;23;20575;-89
2022/11/01 08:32:23;;;;;;;7.57;5.00;;;;;;;16.25;100.00;98471.28;5133046;23;20600;-89
2022/11/01 08:34:29;;;;;;;5.47;4.90;;;;;;;16.31;100.00;98473.41;5157841;23;20584;-88
2022/11/01 08:36:33;;;;;;;5.60;4.23;;;;;;;16.37;100.00;98469.41;5136818;23;20590;-89
2022/11/01 08:38:36;;;;;;;6.57;4.50;;;;;;;16.43;100.00;98474.97;5162273;23;20669;-90
2022/11/01 08:40:40;;;;;;;5.80;4.73;;;;;;;16.50;100.00;98470.84;5136929;23;20580;-90
2022/11/01 08:42:43;;;;;;;8.00;6.00;;;;;;;16.54;100.00;98475.72;5162423;23;20655;-88
2022/11/01 08:44:47;;;;;;;4.93;3.80;;;;;;;16.61;100.00;98481.28;5162364;23;20587;-89
2022/11/01 08:46:53;;;;;;;6.43;4.10;;;;;;;16.67;100.00;98478.97;5136207;23;20576;-90
2022/11/01 08:48:59;;;;;;;4.40;3.77;;;;;;;16.73;100.00;98478.47;5160829;23;20606;-89
2022/11/01 08:51:04;;;;;;;6.70;3.50;;;;;;;16.78;100.00;98475.38;5162130;23;20911;-89
2022/11/01 08:53:08;;;;;;;4.73;3.40;;;;;;;16.81;100.00;98480.41;5160292;23;20587;-89
2022/11/01 08:55:11;;;;;;;3.90;2.90;;;;;;;16.84;100.00;98482.75;5162167;23;20572;-89
2022/11/01 08:57:14;;;;;;;4.00;3.00;;;;;;;16.89;100.00;98477.94;5137407;23;20695;-89
2022/11/01 08:59:17;;;;;;;3.60;2.43;;;;;;;16.94;100.00;98481.81;5188542;22;20580;-89
2022/11/01 09:01:22;;;;;;;7.33;3.03;;;;;;;17.00;100.00;98476.03;5137508;23;20581;-88
2022/11/01 09:03:26;;;;;;;4.00;2.93;;;;;;;17.05;100.00;98484.38;5160363;23;20608;-89
2022/11/01 09:05:30;;;;;;;4.90;2.60;;;;;;;17.11;100.00;98492.56;5162132;23;20583;-89
2022/11/01 09:07:35;;;;;;;3.30;2.33;;;;;;;17.17;100.00;98493.81;5136681;23;20991;-89
2022/11/01 09:09:38;;;;;;;4.33;2.27;;;;;;;17.20;100.00;98485.63;5135913;23;20580;-88
2022/11/01 09:11:42;;;;;;;3.73;2.30;;;;;;;17.21;99.92;98487.34;5188791;22;20606;-89
2022/11/01 09:13:45;;;;;;;11.30;9.10;;;;;;;17.20;100.00;98488.28;5160061;23;20655;-88
2022/11/01 09:15:48;;;;;;;5.80;2.20;;;;;;;17.19;99.20;98481.34;5158999;23;20641;-87
2022/11/01 09:17:51;;;;;;;7.97;5.10;;;;;;;17.21;100.00;98482.06;5188668;22;20586;-87
2022/11/01 09:19:55;;;;;;;5.60;3.73;;;;;;;17.25;100.00;98486.13;5162935;23;20618;-88
2022/11/01 09:21:58;;;;;;;4.10;2.20;;;;;;;17.28;100.00;98485.84;5162264;23;20562;-87
2022/11/01 09:24:06;;;;;;;2.10;1.70;;;;;;;17.30;100.00;98486.53;5161499;23;20590;-87
2022/11/01 09:26:10;;;;;;;3.07;1.80;;;;;;;17.31;99.55;98486.41;5159355;23;21397;-86
2022/11/01 09:28:13;;;;;;;3.27;1.97;;;;;;;17.34;99.48;98488.75;5158635;23;20573;-87
2022/11/01 09:30:17;;;;;;;2.20;1.70;;;;;;;17.37;99.39;98488.50;5186245;22;20583;-86
2022/11/01 09:32:20;;;;;;;3.47;2.23;;;;;;;17.40;99.68;98496.13;5186029;22;20619;-85
2022/11/01 09:34:28;;;;;;;3.43;2.40;;;;;;;17.45;99.53;98498.38;5136574;22;20585;-85
2022/11/01 09:36:31;;;;;;;4.00;3.20;;;;;;;17.51;99.78;98509.19;5161666;23;20590;-86
2022/11/01 09:38:35;;;;;;;5.90;4.20;;;;;;;17.55;99.22;98513.22;5137757;23;20996;-86